Time;durP1;ratioP1;P1;durP2;ratioP2;P2;SDS_P1;SDS_P2;PMS_P1;PMS_P2;Temp;Humidity;BMP_temperature;BMP_pressure;BME280_temperature;BME280_humidity;BME280_pressure;Samples;Min_cycle;Max_cycle;Signal;HPM_P1;HPM_P2
2023/05/16 00:01:41;;;;;;;12.83;6.53;;;;;;;;;;5074540;28;20470;-62
2023/05/16 00:04:07;;;;;;;7.17;6.73;;;;;;;;;;5074721;28;20883;-61
2023/05/16 00:06:34;;;;;;;7.37;6.97;;;;;;;;;;5074384;28;20945;-61
2023/05/16 00:09:03;;;;;;;7.53;6.80;;;;;;;;;;5073321;28;20793;-61
2023/05/16 00:11:31;;;;;;;9.50;7.97;;;;;;;;;;5074326;28;20516;-60
2023/05/16 00:13:57;;;;;;;8.00;7.50;;;;;;;;;;5074280;28;20444;-61
2023/05/16 00:16:24;;;;;;;6.97;6.67;;;;;;;;;;5074303;28;20422;-61
2023/05/16 00:18:53;;;;;;;8.53;8.00;;;;;;;;;;5074040;28;20438;-61
2023/05/16 00:21:19;;;;;;;8.13;7.43;;;;;;;;;;5074069;28;20463;-61
2023/05/16 00:23:45;;;;;;;9.20;7.13;;;;;;;;;;5074011;28;20438;-61
2023/05/16 00:26:11;;;;;;;7.20;6.70;;;;;;;;;;5074025;28;20410;-61
2023/05/16 00:28:39;;;;;;;7.40;7.00;;;;;;;;;;5073796;28;20954;-61
2023/05/16 00:31:05;;;;;;;7.37;6.80;;;;;;;;;;5073980;28;20464;-61
2023/05/16 00:33:31;;;;;;;6.70;6.40;;;;;;;;;;5073920;28;20775;-62
2023/05/16 00:35:57;;;;;;;7.97;7.10;;;;;;;;;;5071997;28;20497;-62
2023/05/16 00:38:24;;;;;;;7.40;6.47;;;;;;;;;;5052642;28;20419;-61
2023/05/16 00:40:50;;;;;;;7.20;6.90;;;;;;;;;;5053662;28;20471;-61
2023/05/16 00:43:19;;;;;;;6.90;6.30;;;;;;;;;;5053504;28;20415;-62
2023/05/16 00:45:45;;;;;;;7.37;6.80;;;;;;;;;;5053821;28;20812;-62
2023/05/16 00:48:12;;;;;;;17.70;6.97;;;;;;;;;;5052365;28;20424;-63
2023/05/16 00:50:41;;;;;;;6.50;6.30;;;;;;;;;;5053861;28;20891;-64
2023/05/16 00:53:07;;;;;;;6.47;5.97;;;;;;;;;;5053517;28;20910;-63
2023/05/16 00:55:35;;;;;;;6.47;6.17;;;;;;;;;;5053842;28;20403;-61
2023/05/16 00:58:01;;;;;;;7.77;7.23;;;;;;;;;;5053323;28;20774;-61
2023/05/16 01:00:28;;;;;;;6.43;6.13;;;;;;;;;;5053212;28;20803;-61
2023/05/16 01:02:54;;;;;;;6.77;6.47;;;;;;;;;;5053059;28;20430;-61
2023/05/16 01:05:20;;;;;;;7.87;7.10;;;;;;;;;;5053283;28;20925;-61
2023/05/16 01:07:46;;;;;;;8.00;6.47;;;;;;;;;;5053295;28;20503;-61
2023/05/16 01:10:14;;;;;;;6.30;6.00;;;;;;;;;;5053303;28;20821;-60
2023/05/16 01:12:59;;;;;;;7.00;6.60;;;;;;;;;;5053103;28;20917;-62
2023/05/16 01:15:39;;;;;;;8.07;7.10;;;;;;;;;;5053055;28;20443;-61
2023/05/16 01:18:10;;;;;;;7.07;6.67;;;;;;;;;;5052885;28;20464;-61
2023/05/16 01:20:42;;;;;;;8.17;6.30;;;;;;;;;;5052887;28;20466;-61
2023/05/16 01:23:17;;;;;;;7.10;6.70;;;;;;;;;;5052863;28;20415;-61
2023/05/16 01:26:02;;;;;;;7.30;6.90;;;;;;;;;;5052944;28;20439;-61
2023/05/16 01:28:29;;;;;;;8.03;7.27;;;;;;;;;;5052815;28;20415;-61
2023/05/16 01:30:55;;;;;;;9.27;6.63;;;;;;;;;;5052796;28;20436;-61
2023/05/16 01:33:21;;;;;;;7.47;7.00;;;;;;;;;;5052811;28;20403;-61
2023/05/16 01:35:55;;;;;;;7.67;7.17;;;;;;;;;;5052677;28;20433;-62
2023/05/16 01:38:26;;;;;;;8.00;7.33;;;;;;;;;;5052752;28;20500;-62
2023/05/16 01:40:59;;;;;;;7.77;7.27;;;;;;;;;;5052251;28;20546;-60
2023/05/16 01:43:36;;;;;;;7.83;7.33;;;;;;;;;;5052435;28;20422;-60
2023/05/16 01:46:05;;;;;;;7.93;7.40;;;;;;;;;;5052350;28;20416;-60
2023/05/16 01:48:35;;;;;;;7.47;7.07;;;;;;;;;;5052029;28;20445;-62
2023/05/16 01:51:01;;;;;;;7.93;7.33;;;;;;;;;;5051090;28;20476;-61
2023/05/16 01:53:31;;;;;;;8.70;8.03;;;;;;;;;;5052634;28;20440;-61
2023/05/16 01:55:58;;;;;;;8.03;7.30;;;;;;;;;;5052702;28;20414;-62
2023/05/16 01:58:26;;;;;;;8.23;7.73;;;;;;;;;;5051165;28;20444;-62
2023/05/16 02:00:55;;;;;;;8.60;7.80;;;;;;;;;;5052296;28;20466;-61
2023/05/16 02:03:21;;;;;;;8.50;7.90;;;;;;;;;;5052326;28;20418;-61
2023/05/16 02:05:47;;;;;;;9.03;8.30;;;;;;;;;;5051017;28;20415;-61
2023/05/16 02:08:13;;;;;;;8.63;7.90;;;;;;;;;;5052108;28;20420;-61
2023/05/16 02:10:44;;;;;;;8.70;7.90;;;;;;;;;;5052258;28;20439;-61
2023/05/16 02:13:10;;;;;;;9.93;8.90;;;;;;;;;;5052254;28;20457;-62
2023/05/16 02:15:36;;;;;;;9.50;8.63;;;;;;;;;;5052039;28;20444;-62
2023/05/16 02:18:04;;;;;;;10.13;9.10;;;;;;;;;;5051986;28;20419;-61
2023/05/16 02:20:33;;;;;;;9.73;8.83;;;;;;;;;;5051910;28;20522;-64
2023/05/16 02:22:59;;;;;;;9.73;9.03;;;;;;;;;;5052104;28;20414;-62
2023/05/16 02:25:25;;;;;;;9.63;8.70;;;;;;;;;;5052098;28;20406;-62
2023/05/16 02:27:51;;;;;;;11.63;10.37;;;;;;;;;;5052092;28;20838;-63
2023/05/16 02:30:17;;;;;;;11.23;10.40;;;;;;;;;;5051960;28;20419;-63
2023/05/16 02:32:43;;;;;;;12.37;11.33;;;;;;;;;;5052065;28;20521;-63
2023/05/16 02:35:10;;;;;;;12.53;11.47;;;;;;;;;;5051910;28;20413;-64
2023/05/16 02:37:38;;;;;;;14.10;12.17;;;;;;;;;;5052029;28;20516;-64
2023/05/16 02:40:04;;;;;;;12.20;11.10;;;;;;;;;;5052080;28;20427;-62
2023/05/16 02:42:31;;;;;;;13.73;12.63;;;;;;;;;;5051927;28;20470;-62
2023/05/16 02:44:59;;;;;;;16.20;13.70;;;;;;;;;;5050793;28;20418;-63
2023/05/16 02:47:28;;;;;;;14.87;13.47;;;;;;;;;;5051890;28;20469;-62
2023/05/16 02:49:54;;;;;;;14.67;13.37;;;;;;;;;;5051828;28;20840;-62
2023/05/16 02:52:20;;;;;;;16.33;13.63;;;;;;;;;;5051671;28;20438;-63
2023/05/16 02:54:46;;;;;;;14.63;13.37;;;;;;;;;;5051880;28;20497;-62
2023/05/16 02:57:12;;;;;;;17.70;15.83;;;;;;;;;;5050360;28;20432;-62
2023/05/16 02:59:38;;;;;;;17.57;15.87;;;;;;;;;;5053060;28;20430;-62
2023/05/16 03:02:04;;;;;;;20.57;17.10;;;;;;;;;;5055459;28;20458;-62
2023/05/16 03:04:30;;;;;;;19.57;17.53;;;;;;;;;;5054351;28;20419;-62
2023/05/16 03:06:56;;;;;;;21.23;19.10;;;;;;;;;;5055611;28;20506;-62
2023/05/16 03:09:22;;;;;;;22.30;19.07;;;;;;;;;;5055423;28;20413;-62
2023/05/16 03:11:48;;;;;;;23.10;20.77;;;;;;;;;;5055461;28;20439;-64
2023/05/16 03:14:17;;;;;;;26.20;21.17;;;;;;;;;;5054200;28;20423;-63
2023/05/16 03:16:43;;;;;;;24.80;22.23;;;;;;;;;;5055454;28;20466;-62
2023/05/16 03:19:09;;;;;;;32.97;23.83;;;;;;;;;;5055386;28;20431;-62
2023/05/16 03:21:35;;;;;;;26.23;23.53;;;;;;;;;;5055148;28;20568;-61
2023/05/16 03:24:03;;;;;;;27.83;24.83;;;;;;;;;;5055251;28;20415;-62
2023/05/16 03:26:29;;;;;;;33.33;25.47;;;;;;;;;;5055096;28;21076;-62
2023/05/16 03:28:58;;;;;;;34.10;25.97;;;;;;;;;;5055145;28;20411;-63
2023/05/16 03:31:23;;;;;;;33.00;24.13;;;;;;;;;;5055115;28;20403;-61
2023/05/16 03:33:50;;;;;;;30.00;25.80;;;;;;;;;;5055061;28;20450;-63
2023/05/16 03:36:20;;;;;;;30.27;26.90;;;;;;;;;;5054990;28;20438;-63
2023/05/16 03:38:46;;;;;;;29.90;26.47;;;;;;;;;;5054940;28;20435;-64
2023/05/16 03:41:12;;;;;;;29.63;24.80;;;;;;;;;;5054974;28;20462;-62
2023/05/16 03:43:38;;;;;;;28.07;25.13;;;;;;;;;;5053512;28;20918;-62
2023/05/16 03:46:04;;;;;;;30.20;26.63;;;;;;;;;;5054727;28;20821;-62
2023/05/16 03:48:30;;;;;;;31.77;27.30;;;;;;;;;;5054669;28;20419;-62
2023/05/16 03:50:59;;;;;;;28.43;24.60;;;;;;;;;;5054697;28;20592;-64
2023/05/16 03:53:25;;;;;;;33.63;25.47;;;;;;;;;;5054643;28;20426;-62
2023/05/16 03:55:51;;;;;;;31.40;24.90;;;;;;;;;;5054599;28;20443;-62
2023/05/16 03:58:17;;;;;;;32.03;27.27;;;;;;;;;;5054635;28;20920;-62
2023/05/16 04:00:45;;;;;;;37.67;27.47;;;;;;;;;;5054268;28;20495;-62
2023/05/16 04:03:10;;;;;;;34.20;27.50;;;;;;;;;;5054516;28;20487;-63
2023/05/16 04:05:39;;;;;;;38.13;29.00;;;;;;;;;;5054529;28;20501;-64
2023/05/16 04:08:07;;;;;;;44.03;29.50;;;;;;;;;;5054544;28;20786;-62
2023/05/16 04:10:33;;;;;;;37.70;29.33;;;;;;;;;;5053929;28;20804;-64
2023/05/16 04:13:02;;;;;;;41.97;29.77;;;;;;;;;;5054440;28;20445;-63
2023/05/16 04:15:30;;;;;;;85.10;54.60;;;;;;;;;;5054479;28;20407;-62
2023/05/16 04:17:56;;;;;;;42.57;30.50;;;;;;;;;;5054319;28;20442;-62
2023/05/16 04:20:22;;;;;;;42.63;31.30;;;;;;;;;;5054326;28;20916;-62
2023/05/16 04:22:48;;;;;;;43.40;29.10;;;;;;;;;;5054141;28;20462;-62
2023/05/16 04:25:14;;;;;;;41.20;30.37;;;;;;;;;;5054155;28;20774;-62
2023/05/16 04:27:43;;;;;;;52.33;36.87;;;;;;;;;;5054026;28;20812;-62
2023/05/16 04:30:10;;;;;;;45.70;35.10;;;;;;;;;;5052634;28;20493;-62
2023/05/16 04:32:36;;;;;;;40.70;29.60;;;;;;;;;;5053886;28;20909;-62
2023/05/16 04:35:04;;;;;;;43.67;30.77;;;;;;;;;;5053811;28;20449;-62
2023/05/16 04:37:30;;;;;;;42.77;30.10;;;;;;;;;;5053854;28;20419;-63
2023/05/16 04:39:56;;;;;;;39.10;27.80;;;;;;;;;;5053816;28;20422;-63
2023/05/16 04:42:23;;;;;;;34.70;27.60;;;;;;;;;;5053650;28;20469;-62
2023/05/16 04:44:49;;;;;;;28.37;25.20;;;;;;;;;;5053719;28;20772;-63
2023/05/16 04:47:17;;;;;;;31.57;26.40;;;;;;;;;;5053907;28;20468;-63
2023/05/16 04:49:43;;;;;;;34.93;24.50;;;;;;;;;;5053652;28;20407;-63
2023/05/16 04:52:10;;;;;;;33.80;25.07;;;;;;;;;;5053602;28;20470;-63
2023/05/16 04:54:38;;;;;;;29.17;24.97;;;;;;;;;;5053528;28;20787;-62
2023/05/16 04:57:05;;;;;;;32.93;26.77;;;;;;;;;;5052075;28;20541;-62
2023/05/16 04:59:33;;;;;;;36.57;27.80;;;;;;;;;;5053378;28;20426;-62
2023/05/16 05:01:59;;;;;;;44.10;30.67;;;;;;;;;;5053411;28;20528;-63
2023/05/16 05:04:25;;;;;;;47.00;34.63;;;;;;;;;;5053374;28;20413;-62
2023/05/16 05:06:53;;;;;;;51.00;31.93;;;;;;;;;;5053247;28;20411;-62
2023/05/16 05:09:19;;;;;;;48.33;33.30;;;;;;;;;;5053226;28;20792;-62
2023/05/16 05:11:48;;;;;;;46.20;32.07;;;;;;;;;;5053253;28;20416;-63
2023/05/16 05:14:14;;;;;;;51.03;33.90;;;;;;;;;;5053181;28;20440;-62
2023/05/16 05:16:40;;;;;;;52.93;33.80;;;;;;;;;;5053317;28;20447;-63
2023/05/16 05:19:07;;;;;;;52.40;33.20;;;;;;;;;;5052958;28;20473;-63
2023/05/16 05:21:33;;;;;;;53.87;34.07;;;;;;;;;;5052776;28;20473;-62
2023/05/16 05:23:59;;;;;;;58.00;33.70;;;;;;;;;;5052747;28;20910;-63
2023/05/16 05:26:27;;;;;;;48.87;32.63;;;;;;;;;;5052990;28;20410;-63
2023/05/16 05:28:56;;;;;;;64.77;35.73;;;;;;;;;;5052765;28;20414;-63
2023/05/16 05:31:22;;;;;;;53.90;33.60;;;;;;;;;;5052743;28;20442;-63
2023/05/16 05:33:48;;;;;;;50.67;33.07;;;;;;;;;;5052674;28;20415;-63
2023/05/16 05:36:14;;;;;;;52.90;33.83;;;;;;;;;;5052524;28;20450;-63
2023/05/16 05:38:42;;;;;;;53.03;33.90;;;;;;;;;;5052701;28;20415;-63
2023/05/16 05:41:08;;;;;;;53.67;32.70;;;;;;;;;;5052463;28;20938;-63
2023/05/16 05:43:34;;;;;;;51.47;32.70;;;;;;;;;;5052574;28;20921;-63
2023/05/16 05:46:00;;;;;;;55.00;33.70;;;;;;;;;;5051184;28;20422;-63
2023/05/16 05:48:29;;;;;;;50.80;32.80;;;;;;;;;;5052417;28;20473;-62
2023/05/16 05:50:55;;;;;;;50.80;31.17;;;;;;;;;;5052503;28;20411;-63
2023/05/16 05:53:24;;;;;;;59.20;33.50;;;;;;;;;;5051353;28;20509;-62
2023/05/16 05:55:52;;;;;;;53.77;32.00;;;;;;;;;;5052349;28;20484;-63
2023/05/16 05:58:21;;;;;;;47.40;30.43;;;;;;;;;;5052236;28;20443;-62
2023/05/16 06:00:47;;;;;;;50.10;31.87;;;;;;;;;;5052222;28;20438;-62
2023/05/16 06:03:15;;;;;;;52.63;30.87;;;;;;;;;;5052460;28;20414;-62
2023/05/16 06:05:41;;;;;;;50.20;31.13;;;;;;;;;;5052477;28;20407;-62
2023/05/16 06:08:07;;;;;;;54.53;31.10;;;;;;;;;;5052383;28;20415;-62
2023/05/16 06:10:33;;;;;;;50.43;30.87;;;;;;;;;;5052126;28;20441;-62
2023/05/16 06:12:59;;;;;;;52.77;32.60;;;;;;;;;;5052210;28;20505;-62
2023/05/16 06:15:25;;;;;;;65.07;36.20;;;;;;;;;;5052283;28;20488;-62
2023/05/16 06:17:51;;;;;;;155.27;84.50;;;;;;;;;;5052267;28;20450;-61
2023/05/16 06:20:17;;;;;;;57.87;33.37;;;;;;;;;;5052230;28;20450;-62
2023/05/16 06:22:46;;;;;;;93.83;50.47;;;;;;;;;;5052521;28;20463;-62
2023/05/16 06:25:11;;;;;;;110.67;60.50;;;;;;;;;;5052405;28;20419;-62
2023/05/16 06:27:40;;;;;;;65.97;34.97;;;;;;;;;;5052157;28;20411;-62
2023/05/16 06:30:06;;;;;;;64.77;37.50;;;;;;;;;;5052040;28;20456;-62
2023/05/16 06:32:32;;;;;;;101.70;54.50;;;;;;;;;;5050832;28;20580;-63
2023/05/16 06:34:58;;;;;;;61.00;34.43;;;;;;;;;;5055262;28;20445;-62
2023/05/16 06:37:25;;;;;;;63.83;37.10;;;;;;;;;;5055967;28;20465;-61
2023/05/16 06:39:51;;;;;;;69.40;38.73;;;;;;;;;;5056013;28;20422;-62
2023/05/16 06:42:19;;;;;;;53.40;32.57;;;;;;;;;;5055646;28;20458;-63
2023/05/16 06:44:46;;;;;;;50.70;30.33;;;;;;;;;;5055894;28;20442;-62
2023/05/16 06:47:12;;;;;;;48.43;29.10;;;;;;;;;;5055835;28;20403;-62
2023/05/16 06:49:38;;;;;;;46.97;30.57;;;;;;;;;;5055823;28;20430;-61
2023/05/16 06:52:06;;;;;;;52.63;30.03;;;;;;;;;;5055729;28;20410;-61
2023/05/16 06:54:32;;;;;;;54.70;30.73;;;;;;;;;;5055667;28;21002;-62
2023/05/16 06:57:02;;;;;;;46.83;29.30;;;;;;;;;;5055568;28;20410;-62
2023/05/16 06:59:28;;;;;;;49.90;29.53;;;;;;;;;;5054277;28;20435;-62
2023/05/16 07:01:54;;;;;;;52.13;29.03;;;;;;;;;;5055761;28;20502;-61
2023/05/16 07:04:20;;;;;;;44.97;29.77;;;;;;;;;;5055522;28;20406;-62
2023/05/16 07:06:46;;;;;;;47.00;28.47;;;;;;;;;;5055526;28;20456;-62
2023/05/16 07:09:12;;;;;;;47.50;28.70;;;;;;;;;;5055350;28;20414;-62
2023/05/16 07:11:38;;;;;;;48.37;29.33;;;;;;;;;;5055459;28;20464;-62
2023/05/16 07:14:04;;;;;;;46.20;28.17;;;;;;;;;;5055326;28;20771;-62
2023/05/16 07:16:30;;;;;;;55.27;30.33;;;;;;;;;;5053977;28;20439;-63
2023/05/16 07:18:58;;;;;;;44.77;28.13;;;;;;;;;;5053791;28;20779;-63
2023/05/16 07:21:24;;;;;;;46.83;27.93;;;;;;;;;;5055057;28;20462;-62
2023/05/16 07:23:50;;;;;;;45.80;29.83;;;;;;;;;;5055223;28;20415;-63
2023/05/16 07:26:21;;;;;;;51.10;30.20;;;;;;;;;;5053656;28;20411;-62
2023/05/16 07:28:47;;;;;;;46.63;29.47;;;;;;;;;;5054989;28;20435;-62
2023/05/16 07:31:13;;;;;;;47.80;28.40;;;;;;;;;;5054959;28;20472;-62
2023/05/16 07:33:39;;;;;;;48.63;29.87;;;;;;;;;;5054651;28;20798;-62
2023/05/16 07:36:05;;;;;;;51.57;31.57;;;;;;;;;;5054849;28;20414;-62
2023/05/16 07:38:31;;;;;;;45.17;29.10;;;;;;;;;;5054791;28;20969;-62
2023/05/16 07:40:57;;;;;;;43.80;28.03;;;;;;;;;;5054622;28;20417;-62
2023/05/16 07:43:25;;;;;;;49.80;31.33;;;;;;;;;;5054508;28;20411;-62
2023/05/16 07:45:51;;;;;;;54.07;29.93;;;;;;;;;;5053893;28;20498;-61
2023/05/16 07:48:17;;;;;;;46.00;28.40;;;;;;;;;;5054456;28;20494;-62
2023/05/16 07:50:43;;;;;;;48.50;29.27;;;;;;;;;;5054533;28;20435;-62
2023/05/16 07:53:09;;;;;;;42.20;26.23;;;;;;;;;;5054442;28;21031;-62
2023/05/16 07:55:35;;;;;;;43.50;26.57;;;;;;;;;;5054468;28;20441;-61
2023/05/16 07:58:04;;;;;;;45.90;29.00;;;;;;;;;;5053044;28;20427;-61
2023/05/16 08:00:29;;;;;;;45.00;28.77;;;;;;;;;;5054397;28;20426;-61
2023/05/16 08:02:56;;;;;;;42.17;28.60;;;;;;;;;;5054409;28;20462;-62
2023/05/16 08:05:23;;;;;;;39.80;26.43;;;;;;;;;;5054285;28;20418;-61
2023/05/16 08:07:49;;;;;;;45.37;28.23;;;;;;;;;;5054095;28;20434;-61
2023/05/16 08:10:15;;;;;;;41.30;26.50;;;;;;;;;;5054196;28;20422;-61
2023/05/16 08:12:41;;;;;;;42.37;25.27;;;;;;;;;;5054112;28;20438;-61
2023/05/16 08:15:08;;;;;;;44.50;26.77;;;;;;;;;;5054053;28;20410;-61
2023/05/16 08:17:34;;;;;;;40.60;26.00;;;;;;;;;;5054064;28;20803;-61
2023/05/16 08:20:00;;;;;;;37.80;26.30;;;;;;;;;;5054073;28;20411;-62
2023/05/16 08:22:26;;;;;;;37.40;23.80;;;;;;;;;;5053798;28;20818;-62
2023/05/16 08:24:56;;;;;;;38.53;24.67;;;;;;;;;;5053899;28;20403;-61
2023/05/16 08:27:25;;;;;;;36.03;24.50;;;;;;;;;;5053780;28;20411;-61
2023/05/16 08:29:51;;;;;;;45.03;23.80;;;;;;;;;;5053973;28;20435;-61
2023/05/16 08:32:17;;;;;;;42.43;25.03;;;;;;;;;;5053752;28;20432;-62
2023/05/16 08:34:43;;;;;;;48.17;24.27;;;;;;;;;;5053782;28;20438;-61
2023/05/16 08:37:09;;;;;;;35.57;23.70;;;;;;;;;;5053791;28;20415;-61
2023/05/16 08:39:35;;;;;;;28.13;21.77;;;;;;;;;;5053537;28;20498;-61
2023/05/16 08:42:03;;;;;;;40.00;22.43;;;;;;;;;;5052257;28;20470;-62
2023/05/16 08:44:37;;;;;;;34.73;24.07;;;;;;;;;;5053466;28;20502;-61
2023/05/16 08:47:11;;;;;;;33.30;22.90;;;;;;;;;;5053463;28;20427;-61
2023/05/16 08:49:38;;;;;;;29.60;20.60;;;;;;;;;;5052324;28;20429;-61
2023/05/16 08:52:07;;;;;;;37.03;22.43;;;;;;;;;;5053396;28;20418;-61
2023/05/16 08:54:33;;;;;;;34.53;21.37;;;;;;;;;;5053190;28;20800;-61
2023/05/16 08:57:00;;;;;;;33.17;22.07;;;;;;;;;;5053222;28;20522;-61
2023/05/16 08:59:26;;;;;;;33.57;21.80;;;;;;;;;;5053079;28;20524;-62
2023/05/16 09:01:52;;;;;;;33.53;22.53;;;;;;;;;;5053246;28;20812;-62
2023/05/16 09:04:18;;;;;;;32.53;23.10;;;;;;;;;;5052936;28;20414;-61
2023/05/16 09:06:44;;;;;;;38.83;23.10;;;;;;;;;;5053172;28;20435;-61
2023/05/16 09:09:11;;;;;;;36.20;23.37;;;;;;;;;;5053099;28;20413;-62
2023/05/16 09:11:38;;;;;;;40.17;23.40;;;;;;;;;;5053034;28;20862;-62
2023/05/16 09:14:06;;;;;;;40.53;23.90;;;;;;;;;;5053038;28;20493;-62
2023/05/16 09:16:32;;;;;;;31.70;21.80;;;;;;;;;;5051497;28;20435;-62
2023/05/16 09:18:59;;;;;;;32.20;22.40;;;;;;;;;;5052898;28;20403;-61
2023/05/16 09:21:34;;;;;;;33.00;22.47;;;;;;;;;;5052726;28;20455;-62
2023/05/16 09:24:07;;;;;;;38.43;23.73;;;;;;;;;;5052815;28;20445;-62
2023/05/16 09:26:33;;;;;;;33.00;21.80;;;;;;;;;;5052798;28;20414;-62
2023/05/16 09:29:00;;;;;;;30.67;20.60;;;;;;;;;;5052648;28;20408;-62
2023/05/16 09:31:35;;;;;;;34.60;22.70;;;;;;;;;;5052587;28;20512;-62
2023/05/16 09:34:03;;;;;;;31.57;21.37;;;;;;;;;;5052745;28;20418;-62
2023/05/16 09:36:33;;;;;;;38.90;23.90;;;;;;;;;;5052882;28;20929;-62
2023/05/16 09:39:00;;;;;;;38.07;24.60;;;;;;;;;;5068949;28;20901;-62
2023/05/16 09:41:26;;;;;;;32.63;22.43;;;;;;;;;;5072867;28;20830;-61
2023/05/16 09:43:52;;;;;;;34.27;22.13;;;;;;;;;;5072807;28;20418;-61
2023/05/16 09:46:18;;;;;;;33.23;22.63;;;;;;;;;;5072648;28;20438;-61
2023/05/16 09:48:45;;;;;;;35.43;20.80;;;;;;;;;;5072687;28;20410;-61
2023/05/16 09:51:12;;;;;;;32.47;22.27;;;;;;;;;;5072961;28;20496;-61
2023/05/16 09:53:39;;;;;;;38.03;23.43;;;;;;;;;;5072600;28;20967;-61
2023/05/16 09:56:08;;;;;;;79.70;51.23;;;;;;;;;;5072476;28;20928;-61
2023/05/16 09:58:35;;;;;;;57.47;31.97;;;;;;;;;;5071261;28;20920;-61
2023/05/16 10:01:01;;;;;;;40.33;27.27;;;;;;;;;;5071068;28;20485;-61
2023/05/16 10:03:28;;;;;;;30.87;22.80;;;;;;;;;;5072479;28;20433;-61
2023/05/16 10:05:56;;;;;;;37.80;23.03;;;;;;;;;;5072657;28;20438;-61
2023/05/16 10:08:24;;;;;;;37.27;23.90;;;;;;;;;;5070730;28;20422;-62
2023/05/16 10:10:56;;;;;;;35.13;24.23;;;;;;;;;;5072367;28;20406;-63
2023/05/16 10:13:31;;;;;;;35.33;23.60;;;;;;;;;;5071472;28;20461;-63
2023/05/16 10:16:00;;;;;;;33.70;23.13;;;;;;;;;;5072122;28;20409;-64
2023/05/16 10:18:30;;;;;;;31.57;22.83;;;;;;;;;;5072415;28;20418;-62
2023/05/16 10:21:00;;;;;;;32.30;21.83;;;;;;;;;;5072063;28;20414;-62
2023/05/16 10:23:30;;;;;;;27.97;20.90;;;;;;;;;;5072478;28;20394;-62
2023/05/16 10:25:57;;;;;;;28.40;20.47;;;;;;;;;;5071985;28;20418;-62
2023/05/16 10:28:23;;;;;;;27.43;18.73;;;;;;;;;;5072398;28;20402;-63
2023/05/16 10:30:50;;;;;;;30.10;19.60;;;;;;;;;;5072210;28;20463;-62
2023/05/16 10:33:17;;;;;;;28.37;20.40;;;;;;;;;;5072366;28;20417;-63
2023/05/16 10:35:43;;;;;;;28.73;19.30;;;;;;;;;;5072251;28;20418;-62
2023/05/16 10:38:11;;;;;;;24.00;16.17;;;;;;;;;;5072256;28;20420;-62
2023/05/16 10:40:40;;;;;;;24.73;16.80;;;;;;;;;;5072433;28;20426;-62
2023/05/16 10:43:07;;;;;;;22.47;17.03;;;;;;;;;;5072184;28;20453;-61
2023/05/16 10:45:34;;;;;;;25.40;15.80;;;;;;;;;;5070900;28;20429;-62
2023/05/16 10:48:03;;;;;;;18.00;15.10;;;;;;;;;;5072038;28;20414;-63
2023/05/16 10:50:32;;;;;;;16.57;14.23;;;;;;;;;;5072325;28;20782;-62
2023/05/16 10:53:21;;;;;;;18.00;14.73;;;;;;;;;;5071719;28;20421;-62
2023/05/16 10:55:50;;;;;;;15.90;12.77;;;;;;;;;;5071666;28;20793;-62
2023/05/16 10:58:23;;;;;;;14.60;11.23;;;;;;;;;;5071784;28;20935;-62
2023/05/16 11:00:51;;;;;;;15.30;11.67;;;;;;;;;;5070326;28;20483;-62
2023/05/16 11:03:24;;;;;;;13.77;12.20;;;;;;;;;;5071864;28;20453;-62
2023/05/16 11:05:52;;;;;;;13.47;11.13;;;;;;;;;;5071830;28;20896;-61
2023/05/16 11:08:19;;;;;;;20.43;12.37;;;;;;;;;;5071703;28;20424;-62
2023/05/16 11:10:45;;;;;;;13.83;11.10;;;;;;;;;;5071762;28;20410;-62
2023/05/16 11:13:11;;;;;;;16.03;11.30;;;;;;;;;;5071830;28;20471;-61
2023/05/16 11:15:37;;;;;;;16.90;12.33;;;;;;;;;;5071725;28;20413;-62
2023/05/16 11:18:09;;;;;;;15.77;11.67;;;;;;;;;;5071371;28;20504;-62
2023/05/16 11:20:36;;;;;;;16.20;11.40;;;;;;;;;;5072797;28;20394;-62
2023/05/16 11:23:20;;;;;;;10.70;9.60;;;;;;;;;;5075178;28;20979;-61
2023/05/16 11:25:52;;;;;;;9.03;8.23;;;;;;;;;;5075450;28;20406;-62
2023/05/16 11:28:19;;;;;;;10.60;9.17;;;;;;;;;;5075204;28;20434;-62
2023/05/16 11:30:46;;;;;;;8.10;7.40;;;;;;;;;;5075215;28;20402;-62
2023/05/16 11:33:14;;;;;;;8.60;7.87;;;;;;;;;;5075130;28;20441;-60
2023/05/16 11:35:41;;;;;;;10.07;9.03;;;;;;;;;;5075335;28;20442;-62
2023/05/16 11:38:12;;;;;;;8.80;8.10;;;;;;;;;;5075042;28;21061;-62
2023/05/16 11:40:43;;;;;;;9.87;8.90;;;;;;;;;;5075307;28;20493;-62
2023/05/16 11:43:10;;;;;;;9.17;8.27;;;;;;;;;;5075000;28;20986;-62
2023/05/16 11:45:39;;;;;;;9.43;8.63;;;;;;;;;;5074984;28;20402;-62
2023/05/16 11:48:07;;;;;;;8.70;7.87;;;;;;;;;;5075055;28;20448;-62
2023/05/16 11:50:36;;;;;;;8.80;7.93;;;;;;;;;;5075052;28;20459;-62
2023/05/16 11:53:04;;;;;;;9.57;7.97;;;;;;;;;;5074718;28;20440;-62
2023/05/16 11:55:31;;;;;;;9.53;8.73;;;;;;;;;;5074663;28;20908;-62
2023/05/16 11:57:57;;;;;;;12.57;10.93;;;;;;;;;;5074736;28;20781;-62
2023/05/16 12:00:29;;;;;;;41.50;27.97;;;;;;;;;;5074790;28;20856;-62
2023/05/16 12:03:00;;;;;;;11.43;10.33;;;;;;;;;;5073288;28;20476;-62
2023/05/16 12:05:30;;;;;;;12.27;9.60;;;;;;;;;;5074761;28;20446;-61
2023/05/16 12:07:56;;;;;;;13.30;11.73;;;;;;;;;;5074807;28;20462;-62
2023/05/16 12:10:22;;;;;;;11.30;10.23;;;;;;;;;;5074592;28;20410;-62
2023/05/16 12:12:53;;;;;;;9.83;8.93;;;;;;;;;;5074472;28;20794;-62
2023/05/16 12:15:20;;;;;;;8.30;7.60;;;;;;;;;;5074593;28;20415;-61
2023/05/16 12:17:46;;;;;;;7.50;6.80;;;;;;;;;;5074536;28;20766;-62
2023/05/16 12:20:16;;;;;;;7.23;6.70;;;;;;;;;;5073303;28;20440;-61
2023/05/16 12:22:43;;;;;;;6.17;5.80;;;;;;;;;;5073938;28;20948;-61
2023/05/16 12:25:20;;;;;;;9.50;5.33;;;;;;;;;;5074103;28;20402;-62
2023/05/16 12:27:46;;;;;;;6.60;5.87;;;;;;;;;;5074343;28;20835;-62
2023/05/16 12:30:12;;;;;;;5.37;4.97;;;;;;;;;;5074200;28;20418;-62
2023/05/16 12:32:38;;;;;;;4.63;4.23;;;;;;;;;;5073678;28;20438;-62
2023/05/16 12:35:04;;;;;;;6.30;5.90;;;;;;;;;;5074151;28;20493;-61
2023/05/16 12:37:30;;;;;;;4.70;4.40;;;;;;;;;;5074364;28;20452;-62
2023/05/16 12:40:00;;;;;;;23.33;5.17;;;;;;;;;;5074170;28;20802;-61
2023/05/16 12:42:29;;;;;;;4.87;4.50;;;;;;;;;;5072487;28;20470;-62
2023/05/16 12:44:58;;;;;;;4.53;4.23;;;;;;;;;;5073372;28;20446;-61
2023/05/16 12:47:34;;;;;;;4.13;3.83;;;;;;;;;;5073518;28;20893;-62
2023/05/16 12:50:01;;;;;;;4.27;3.87;;;;;;;;;;5073619;28;20562;-62
2023/05/16 12:52:28;;;;;;;3.40;3.30;;;;;;;;;;5073243;28;20885;-62
2023/05/16 12:54:57;;;;;;;3.63;3.43;;;;;;;;;;5073613;28;20976;-61
2023/05/16 12:57:23;;;;;;;3.07;2.97;;;;;;;;;;5073479;28;20418;-61
2023/05/16 12:59:49;;;;;;;3.77;3.43;;;;;;;;;;5073034;28;20434;-61
2023/05/16 13:02:15;;;;;;;2.47;2.37;;;;;;;;;;5073302;28;20500;-61
2023/05/16 13:04:44;;;;;;;3.13;2.00;;;;;;;;;;5073411;28;20402;-61
2023/05/16 13:07:16;;;;;;;3.20;2.87;;;;;;;;;;5073220;28;20479;-61
2023/05/16 13:09:42;;;;;;;2.60;2.50;;;;;;;;;;5073359;28;20405;-62
2023/05/16 13:12:08;;;;;;;3.37;3.27;;;;;;;;;;5073164;28;20786;-61
2023/05/16 13:14:37;;;;;;;8.13;3.83;;;;;;;;;;5073272;28;20942;-62
2023/05/16 13:17:06;;;;;;;4.53;4.33;;;;;;;;;;5073289;28;20414;-62
2023/05/16 13:19:32;;;;;;;4.70;4.50;;;;;;;;;;5073226;28;20497;-62
2023/05/16 13:21:58;;;;;;;5.13;3.37;;;;;;;;;;5073216;28;20468;-62
2023/05/16 13:24:24;;;;;;;3.40;3.23;;;;;;;;;;5072800;28;20430;-62
2023/05/16 13:26:52;;;;;;;3.83;3.73;;;;;;;;;;5072671;28;20877;-61
2023/05/16 13:29:18;;;;;;;15.27;3.73;;;;;;;;;;5071556;28;20441;-62
2023/05/16 13:31:44;;;;;;;3.40;3.30;;;;;;;;;;5072776;28;20437;-62
2023/05/16 13:34:10;;;;;;;3.47;3.10;;;;;;;;;;5072801;28;20422;-63
2023/05/16 13:36:36;;;;;;;3.47;3.37;;;;;;;;;;5072760;28;20418;-61
2023/05/16 13:39:02;;;;;;;2.80;2.80;;;;;;;;;;5072714;28;20916;-62
2023/05/16 13:41:32;;;;;;;3.37;3.13;;;;;;;;;;5072350;28;20461;-62
2023/05/16 13:43:58;;;;;;;3.30;3.20;;;;;;;;;;5071948;28;20951;-62
2023/05/16 13:46:24;;;;;;;3.20;3.10;;;;;;;;;;5072723;28;20889;-62
2023/05/16 13:48:50;;;;;;;5.60;3.03;;;;;;;;;;5071366;28;20452;-62
2023/05/16 13:51:19;;;;;;;5.23;4.30;;;;;;;;;;5072907;28;20422;-62
2023/05/16 13:53:45;;;;;;;3.37;3.10;;;;;;;;;;5072363;28;20442;-62
2023/05/16 13:56:11;;;;;;;4.70;4.27;;;;;;;;;;5072459;28;20945;-63
2023/05/16 13:58:37;;;;;;;71.67;18.43;;;;;;;;;;5072548;28;20421;-62
2023/05/16 14:01:06;;;;;;;4.40;4.10;;;;;;;;;;5072364;28;20487;-61
2023/05/16 14:03:35;;;;;;;4.87;4.43;;;;;;;;;;5072462;28;20549;-62
2023/05/16 14:06:01;;;;;;;4.37;3.83;;;;;;;;;;5072690;28;20817;-62
2023/05/16 14:08:28;;;;;;;4.03;3.60;;;;;;;;;;5072343;28;20425;-62
2023/05/16 14:10:56;;;;;;;4.47;4.17;;;;;;;;;;5072476;28;20508;-62
2023/05/16 14:13:22;;;;;;;4.53;4.27;;;;;;;;;;5072960;28;20797;-62
2023/05/16 14:15:48;;;;;;;3.53;3.53;;;;;;;;;;5072577;28;20398;-63
2023/05/16 14:18:14;;;;;;;3.13;3.03;;;;;;;;;;5072474;28;20738;-63
2023/05/16 14:20:42;;;;;;;3.97;3.83;;;;;;;;;;5072420;28;20485;-63
2023/05/16 14:23:08;;;;;;;4.47;4.20;;;;;;;;;;5072272;28;20458;-63
2023/05/16 14:25:35;;;;;;;4.23;4.03;;;;;;;;;;5072356;28;20405;-63
2023/05/16 14:28:03;;;;;;;9.40;6.80;;;;;;;;;;5072346;28;20427;-62